logo tempoitalia

Diretta Meteo Winner, Stati Uniti (USA)lunedì 31 agosto ore 00:53

Mappa
Sereno 18 °C Sereno 24 Ore: T.min 18 T.max 35
Ponente Ovest/Nord-Ovest Km/h 16.7 Punto di rugiada: 14 °C Umidità: 77% Visibilità: 10 Km
Il sole sorge alle: 07:02 Il sole tramonta alle: 20:16
31 Agosto 2026 00:53 tempo osservato: Sereno Sereno 18 77 1012 vento: Nord O/NO 16.7
30 Agosto 2026 23:53 tempo osservato: Sereno Sereno 19 82 1011 vento: Nord O/NO 22.2
30 Agosto 2026 22:53 tempo osservato: Sereno Sereno 22 64 1009 vento: Nord O 35.2
30 Agosto 2026 22:30 tempo osservato: Sereno Sereno 24 53 1009 vento: Nord O 42.6
30 Agosto 2026 21:53 tempo osservato: Sereno Sereno 26 47 1008 vento: Nord S/SO 22.2
30 Agosto 2026 20:53 tempo osservato: Sereno Sereno 28 48 1007 vento: Nord S 18.5
30 Agosto 2026 19:53 tempo osservato: Sereno Sereno 32 33 1007 vento: Nord S 13
30 Agosto 2026 18:53 tempo osservato: Sereno Sereno 34 30 1007 vento: Nord SO 9.3
30 Agosto 2026 17:53 tempo osservato: Sereno Sereno 34 26 1007 vento: Nord SO 18.5
30 Agosto 2026 16:53 tempo osservato: Sereno Sereno 34 28 1007 vento: Nord O/SO 14.8
30 Agosto 2026 15:53 tempo osservato: Sereno Sereno 35 24 1007 vento: Nord O 24
30 Agosto 2026 14:53 tempo osservato: Sereno Sereno 33 29 1008 vento: Nord O 20.3
30 Agosto 2026 13:53 tempo osservato: Sereno Sereno 33 31 1008 vento: Nord O 16.7
30 Agosto 2026 12:53 tempo osservato: Sereno Sereno 32 33 1008 vento: Nord O 14.8
30 Agosto 2026 11:53 tempo osservato: Sereno Sereno 31 35 1008 vento: Nord O/SO 18.5
30 Agosto 2026 10:53 tempo osservato: Sereno Sereno 29 39 1008 vento: Nord O 16.7
30 Agosto 2026 09:53 tempo osservato: Sereno Sereno 28 39 1008 vento: Nord O/SO 16.7
30 Agosto 2026 08:53 tempo osservato: Sereno Sereno 24 50 1008 vento: Nord SO 13
30 Agosto 2026 07:53 tempo osservato: Sereno Sereno 22 56 1008 vento: Nord SO 14.8
30 Agosto 2026 06:53 tempo osservato: Sereno Sereno 21 64 1008 vento: Nord S/SO 18.5
30 Agosto 2026 05:53 tempo osservato: Poco Nuvoloso Poco Nuvoloso 21 64 1008 vento: Nord S/SO 13
30 Agosto 2026 04:53 tempo osservato: Sereno Sereno 21 64 1008 vento: Nord S 14.8
30 Agosto 2026 03:53 tempo osservato: Sereno Sereno 23 56 1008 vento: Nord N 5.5
30 Agosto 2026 02:53 tempo osservato: Sereno Sereno 23 60 1008 vento: Nord S 7.4
30 Agosto 2026 01:53 tempo osservato: Sereno Sereno 23 64 1008 vento: Nord SE 9.3